createdAt,value
2022-09-03T00:05:34.422Z,10.50
2022-09-03T00:11:11.991Z,10.70
2022-09-03T00:17:14.492Z,10.70
2022-09-03T00:22:44.869Z,10.60
2022-09-03T00:28:15.297Z,10.60
2022-09-03T00:33:41.276Z,10.80
2022-09-03T00:39:03.835Z,11.00
2022-09-03T00:44:57.084Z,10.80
2022-09-03T00:50:41.066Z,10.50
2022-09-03T00:56:18.181Z,10.60
2022-09-03T01:01:52.360Z,10.50
2022-09-03T01:07:49.844Z,10.40
2022-09-03T01:13:23.884Z,10.30
2022-09-03T01:18:52.236Z,10.10
2022-09-03T01:24:43.637Z,10.00
2022-09-03T01:30:18.367Z,9.80
2022-09-03T01:35:59.217Z,9.60
2022-09-03T01:41:57.088Z,9.60
2022-09-03T01:47:31.122Z,9.50
2022-09-03T01:53:04.156Z,9.40
2022-09-03T01:58:49.385Z,9.60
2022-09-03T02:04:23.249Z,9.60
2022-09-03T02:09:45.347Z,9.70
2022-09-03T02:15:12.582Z,9.80
2022-09-03T02:20:34.839Z,9.90
2022-09-03T02:26:01.311Z,10.00
2022-09-03T02:31:24.137Z,10.20
2022-09-03T02:36:47.718Z,10.30
2022-09-03T02:42:12.300Z,10.20
2022-09-03T02:47:37.756Z,10.10
2022-09-03T02:52:59.894Z,10.10
2022-09-03T02:58:22.054Z,10.00
2022-09-03T03:03:44.379Z,10.00
2022-09-03T03:09:07.098Z,9.80
2022-09-03T03:14:29.895Z,9.80
2022-09-03T03:19:52.041Z,9.80
2022-09-03T03:25:14.401Z,9.70
2022-09-03T03:30:40.408Z,9.60
2022-09-03T03:36:11.485Z,9.50
2022-09-03T03:41:35.710Z,9.50
2022-09-03T03:46:58.224Z,9.50
2022-09-03T03:52:20.368Z,9.40
2022-09-03T03:57:42.492Z,9.40
2022-09-03T04:03:04.952Z,9.30
2022-09-03T04:08:28.248Z,9.30
2022-09-03T04:13:51.945Z,9.30
2022-09-03T04:19:14.040Z,9.30
2022-09-03T04:24:36.186Z,9.20
2022-09-03T04:29:58.320Z,9.30
2022-09-03T04:35:21.490Z,9.40
2022-09-03T04:40:43.993Z,9.50
2022-09-03T04:46:10.825Z,9.60
2022-09-03T04:51:38.584Z,9.70
2022-09-03T04:57:01.203Z,9.80
2022-09-03T05:02:23.331Z,10.10
2022-09-03T05:07:45.738Z,10.20
2022-09-03T05:13:07.895Z,10.50
2022-09-03T05:18:30.262Z,10.90
2022-09-03T05:23:53.136Z,11.30
2022-09-03T05:29:16.153Z,11.30
2022-09-03T05:34:38.880Z,11.90
2022-09-03T05:40:01.035Z,12.00
2022-09-03T05:45:23.315Z,12.40
2022-09-03T05:50:45.510Z,12.70
2022-09-03T05:56:12.910Z,12.70
2022-09-03T06:01:40.765Z,12.60
2022-09-03T06:07:03.043Z,12.40
2022-09-03T06:12:25.175Z,12.40
2022-09-03T06:17:47.280Z,12.40
2022-09-03T06:23:10.472Z,12.60
2022-09-03T06:28:34.906Z,12.90
2022-09-03T06:34:02.020Z,13.00
2022-09-03T06:39:27.175Z,13.00
2022-09-03T06:44:51.341Z,13.20
2022-09-03T06:50:13.667Z,13.40
2022-09-03T06:55:40.005Z,13.30
2022-09-03T07:01:07.665Z,13.40
2022-09-03T07:06:42.085Z,13.80
2022-09-03T07:12:05.751Z,13.50
2022-09-03T07:17:28.507Z,13.60
2022-09-03T07:22:51.481Z,13.80
2022-09-03T07:28:14.213Z,14.10
2022-09-03T07:33:36.978Z,14.30
2022-09-03T07:39:00.170Z,14.20
2022-09-03T07:44:23.333Z,14.20
2022-09-03T07:49:45.991Z,14.40
2022-09-03T07:55:11.521Z,14.40
2022-09-03T08:00:34.346Z,14.60
2022-09-03T08:06:05.450Z,14.90
2022-09-03T08:11:30.162Z,14.50
2022-09-03T08:16:53.032Z,14.40
2022-09-03T08:22:15.769Z,14.70
2022-09-03T08:27:38.459Z,14.80
2022-09-03T08:33:05.246Z,14.50
2022-09-03T08:38:28.790Z,14.50
2022-09-03T08:43:52.282Z,14.40
2022-09-03T08:49:19.553Z,14.50
2022-09-03T08:54:42.624Z,14.60
2022-09-03T09:00:06.726Z,14.60
2022-09-03T09:05:54.061Z,14.70
2022-09-03T09:11:28.705Z,15.00
2022-09-03T09:17:20.142Z,15.10
2022-09-03T09:22:48.141Z,15.00
2022-09-03T09:28:18.378Z,15.20
2022-09-03T09:33:41.751Z,14.90
2022-09-03T09:39:16.292Z,15.20
2022-09-03T09:44:41.616Z,14.90
2022-09-03T09:50:25.125Z,15.30
2022-09-03T09:55:49.879Z,15.40
2022-09-03T10:01:18.798Z,15.50
2022-09-03T10:06:59.578Z,15.40
2022-09-03T10:12:51.017Z,15.20
2022-09-03T10:18:42.760Z,15.20
2022-09-03T10:24:31.020Z,15.30
2022-09-03T10:29:53.683Z,15.40
2022-09-03T10:35:32.627Z,15.90
2022-09-03T10:41:26.251Z,16.40
2022-09-03T10:47:03.733Z,16.30
2022-09-03T10:52:55.781Z,16.10
2022-09-03T10:58:27.764Z,16.10
2022-09-03T11:04:04.144Z,16.20
2022-09-03T11:09:50.768Z,15.80
2022-09-03T11:15:34.424Z,15.60
2022-09-03T11:21:00.983Z,15.80
2022-09-03T11:26:26.516Z,15.80
2022-09-03T11:31:49.994Z,16.10
2022-09-03T11:37:30.788Z,16.20
2022-09-03T11:42:53.344Z,16.40
2022-09-03T11:48:39.456Z,16.10
2022-09-03T11:54:05.091Z,16.20
2022-09-03T11:59:27.751Z,16.60
2022-09-03T12:05:06.155Z,16.50
2022-09-03T12:10:53.732Z,16.80
2022-09-03T12:16:54.892Z,16.30
2022-09-03T12:22:18.986Z,16.40
2022-09-03T12:27:45.471Z,17.90
2022-09-03T12:33:12.204Z,18.20
2022-09-03T12:39:00.766Z,18.40
2022-09-03T12:44:24.764Z,17.90
2022-09-03T12:49:50.192Z,17.50
2022-09-03T12:55:27.475Z,17.60
2022-09-03T13:00:58.016Z,18.00
2022-09-03T13:06:24.117Z,18.50
2022-09-03T13:11:47.368Z,18.20
2022-09-03T13:17:15.968Z,17.90
2022-09-03T13:23:06.999Z,17.40
2022-09-03T13:28:47.065Z,17.70
2022-09-03T13:34:33.794Z,17.60
2022-09-03T13:40:01.030Z,17.80
2022-09-03T13:45:46.908Z,17.80
2022-09-03T13:51:21.420Z,17.80
2022-09-03T13:57:04.759Z,17.50
2022-09-03T14:03:23.342Z,17.20
2022-09-03T14:09:34.337Z,17.50
2022-09-03T14:15:16.043Z,17.70
2022-09-03T14:20:46.282Z,17.70
2022-09-03T14:26:35.873Z,17.90
2022-09-03T14:32:28.747Z,18.10
2022-09-03T14:38:12.721Z,17.60
2022-09-03T14:43:41.221Z,17.50
2022-09-03T14:49:10.018Z,17.20
2022-09-03T14:54:51.012Z,17.00
2022-09-03T15:00:31.807Z,17.20
2022-09-03T15:06:15.681Z,17.40
2022-09-03T15:11:57.160Z,17.20
2022-09-03T15:17:32.225Z,17.00
2022-09-03T15:23:12.074Z,16.90
2022-09-03T15:28:53.286Z,16.80
2022-09-03T15:34:34.885Z,16.70
2022-09-03T15:40:24.581Z,16.60
2022-09-03T15:45:47.771Z,16.60
2022-09-03T15:51:24.140Z,16.60
2022-09-03T15:56:59.503Z,16.50
2022-09-03T16:02:41.111Z,16.50
2022-09-03T16:08:13.624Z,16.40
2022-09-03T16:13:54.497Z,16.50
2022-09-03T16:19:25.744Z,16.70
2022-09-03T16:25:07.963Z,16.80
2022-09-03T16:30:48.651Z,16.80
2022-09-03T16:36:10.735Z,16.70
2022-09-03T16:41:40.945Z,16.50
2022-09-03T16:47:21.631Z,16.50
2022-09-03T16:52:54.082Z,16.30
2022-09-03T16:58:22.182Z,16.10
2022-09-03T17:04:12.012Z,15.90
2022-09-03T17:09:56.464Z,15.90
2022-09-03T17:15:44.814Z,15.80
2022-09-03T17:21:32.327Z,15.60
2022-09-03T17:27:13.302Z,15.40
2022-09-03T17:32:50.424Z,15.30
2022-09-03T17:39:02.992Z,15.20
2022-09-03T17:44:47.834Z,15.10
2022-09-03T17:50:24.973Z,15.00
2022-09-03T17:56:08.638Z,14.70
2022-09-03T18:01:34.995Z,14.40
2022-09-03T18:07:09.503Z,14.20
2022-09-03T18:13:03.177Z,14.00
2022-09-03T18:18:32.943Z,13.70
2022-09-03T18:24:38.413Z,13.70
2022-09-03T18:30:26.817Z,13.70
2022-09-03T18:36:08.537Z,13.60
2022-09-03T18:42:09.914Z,13.30
2022-09-03T18:48:16.497Z,13.10
2022-09-03T18:54:24.733Z,13.10
2022-09-03T19:00:15.244Z,12.90
2022-09-03T19:06:39.043Z,12.80
2022-09-03T19:12:59.486Z,12.80
2022-09-03T19:18:53.563Z,12.70
2022-09-03T19:24:36.602Z,12.50
2022-09-03T19:30:39.815Z,12.60
2022-09-03T19:36:42.829Z,12.50
2022-09-03T19:42:35.285Z,12.30
2022-09-03T19:48:20.263Z,12.20
2022-09-03T19:54:02.168Z,12.20
2022-09-03T19:59:47.790Z,12.20
2022-09-03T20:05:42.490Z,12.30
2022-09-03T20:11:07.213Z,12.20
2022-09-03T20:16:55.376Z,12.00
2022-09-03T20:22:37.539Z,12.00
2022-09-03T20:28:07.217Z,12.10
2022-09-03T20:33:57.410Z,12.20
2022-09-03T20:39:45.351Z,12.10
2022-09-03T20:45:23.864Z,12.20
2022-09-03T20:51:16.691Z,12.00
2022-09-03T20:57:09.912Z,12.00
2022-09-03T21:46:41.467Z,12.30
2022-09-03T21:52:19.524Z,12.20
2022-09-03T21:58:02.996Z,12.20
2022-09-03T22:03:25.142Z,12.20
2022-09-03T22:08:47.394Z,12.10
2022-09-03T22:14:16.151Z,11.90
2022-09-03T22:19:40.202Z,12.00
2022-09-03T22:25:14.073Z,11.90
2022-09-03T22:30:46.181Z,11.90
2022-09-03T22:36:47.228Z,11.80
2022-09-03T22:42:45.954Z,11.60
2022-09-03T22:48:45.852Z,11.50
2022-09-03T22:54:19.992Z,11.70
2022-09-03T22:59:51.032Z,11.70
2022-09-03T23:05:33.514Z,11.70
2022-09-03T23:11:05.812Z,11.50
2022-09-03T23:16:37.203Z,11.40
2022-09-03T23:22:10.784Z,11.40
2022-09-03T23:28:09.995Z,11.20
2022-09-03T23:33:32.200Z,11.30
2022-09-03T23:39:15.645Z,11.40
2022-09-03T23:45:10.161Z,11.40
2022-09-03T23:50:50.058Z,11.30
2022-09-03T23:56:30.810Z,11.20
